Terminal Aerodrome Forecast
Issued by NWS

Home | Current Version | Previous Version | Graphics & Text | Print | Product List | Glossary On
Versions: 1 2 3 4 5 6 7 8 9 10 11 12 13 14 15 16
000
FTUS43 KFGF 191100
TAFBJI
TAF
KBJI 191120Z 1912/2012 18009KT P6SM BKN150
     FM192000 29011G28KT P6SM FEW200
     FM200000 30008KT P6SM FEW200=

USA.gov is the U.S. government's official web portal to all federal, state and local government web resources and services.